AAL7 KOAJ-KDCA
Flight info
| Callsign | AAL7 |
|---|---|
| Flight time | 0h 46m |
| Altitude | 37000 |
| Route | LARKE Q111 GEARS THHMP CAPSS4 |
| Aircraft | A319/M-SDE3FGHIRWY/LB1 |
Departure
| Time | 2026-05-03 20:15 |
|---|---|
| Airport | Albert J Ellis Airport (KOAJ) |
Arrival
| Time | 2026-05-03 21:01 |
|---|---|
| Airport | Ronald Reagan Washington National Airport (KDCA) |
| Time | Latitude | Longitude | Altitude | Speed | Heading |
|---|---|---|---|---|---|
| 2026-05-03 20:15 | 34.86591 | -77.58491 | 6383 ft | 257 kts | 351° |
| 2026-05-03 20:15 | 34.88384 | -77.58664 | 7414 ft | 260 kts | 351° |
| 2026-05-03 20:15 | 34.90205 | -77.58837 | 8402 ft | 265 kts | 351° |
| 2026-05-03 20:15 | 34.92068 | -77.59015 | 9372 ft | 271 kts | 350° |
| 2026-05-03 20:16 | 34.93974 | -77.59202 | 10246 ft | 281 kts | 350° |
| 2026-05-03 20:16 | 34.96011 | -77.59413 | 10629 ft | 305 kts | 350° |
| 2026-05-03 20:16 | 34.98169 | -77.59636 | 11302 ft | 315 kts | 350° |
| 2026-05-03 20:16 | 35.00368 | -77.59856 | 12119 ft | 320 kts | 350° |
| 2026-05-03 20:17 | 35.02603 | -77.60077 | 12957 ft | 324 kts | 349° |
| 2026-05-03 20:17 | 35.04867 | -77.60302 | 13801 ft | 329 kts | 349° |
| 2026-05-03 20:17 | 35.07160 | -77.60531 | 14548 ft | 332 kts | 349° |
| 2026-05-03 20:17 | 35.09478 | -77.60763 | 15304 ft | 335 kts | 348° |
| 2026-05-03 20:18 | 35.11814 | -77.60998 | 16066 ft | 339 kts | 348° |
| 2026-05-03 20:18 | 35.14172 | -77.61234 | 16855 ft | 341 kts | 348° |
| 2026-05-03 20:18 | 35.16543 | -77.61473 | 17610 ft | 343 kts | 348° |
| 2026-05-03 20:18 | 35.18933 | -77.61719 | 18366 ft | 346 kts | 347° |
| 2026-05-03 20:19 | 35.21344 | -77.61968 | 19008 ft | 349 kts | 347° |
| 2026-05-03 20:19 | 35.23781 | -77.62219 | 19642 ft | 353 kts | 347° |
| 2026-05-03 20:19 | 35.26243 | -77.62468 | 20271 ft | 357 kts | 347° |
| 2026-05-03 20:19 | 35.28697 | -77.62715 | 20882 ft | 360 kts | 347° |
| 2026-05-03 20:20 | 35.31209 | -77.62970 | 21497 ft | 364 kts | 347° |
| 2026-05-03 20:20 | 35.33747 | -77.63227 | 22093 ft | 368 kts | 346° |
| 2026-05-03 20:20 | 35.36313 | -77.63489 | 22691 ft | 372 kts | 346° |
| 2026-05-03 20:20 | 35.38902 | -77.63754 | 23288 ft | 375 kts | 346° |
| 2026-05-03 20:21 | 35.41519 | -77.64018 | 23839 ft | 379 kts | 346° |
| 2026-05-03 20:21 | 35.44162 | -77.64283 | 24341 ft | 383 kts | 346° |
| 2026-05-03 20:21 | 35.46828 | -77.64553 | 24832 ft | 386 kts | 346° |
| 2026-05-03 20:21 | 35.49517 | -77.64827 | 25316 ft | 389 kts | 345° |
| 2026-05-03 20:22 | 35.52230 | -77.65107 | 25794 ft | 392 kts | 345° |
| 2026-05-03 20:22 | 35.54966 | -77.65388 | 26266 ft | 396 kts | 345° |
| 2026-05-03 20:22 | 35.57722 | -77.65668 | 26728 ft | 399 kts | 345° |
| 2026-05-03 20:22 | 35.60528 | -77.65829 | 27172 ft | 411 kts | 352° |
| 2026-05-03 20:23 | 35.63415 | -77.65441 | 27697 ft | 422 kts | 358° |
| 2026-05-03 20:23 | 35.66326 | -77.64916 | 28176 ft | 424 kts | 358° |
| 2026-05-03 20:23 | 35.69257 | -77.64387 | 28634 ft | 427 kts | 358° |
| 2026-05-03 20:23 | 35.72210 | -77.63857 | 29069 ft | 430 kts | 357° |
| 2026-05-03 20:24 | 35.75187 | -77.63327 | 29518 ft | 434 kts | 357° |
| 2026-05-03 20:24 | 35.78187 | -77.62793 | 29956 ft | 437 kts | 357° |
| 2026-05-03 20:24 | 35.81214 | -77.62254 | 30348 ft | 441 kts | 357° |
| 2026-05-03 20:24 | 35.84264 | -77.61710 | 30708 ft | 444 kts | 357° |
| 2026-05-03 20:25 | 35.87335 | -77.61162 | 31095 ft | 447 kts | 357° |
| 2026-05-03 20:25 | 35.90417 | -77.60613 | 31469 ft | 449 kts | 357° |
| 2026-05-03 20:25 | 35.93519 | -77.60063 | 31808 ft | 452 kts | 357° |
| 2026-05-03 20:25 | 35.96630 | -77.59512 | 32271 ft | 451 kts | 357° |
| 2026-05-03 20:26 | 35.99739 | -77.58956 | 32725 ft | 452 kts | 356° |
| 2026-05-03 20:26 | 36.02852 | -77.58397 | 33149 ft | 452 kts | 356° |
| 2026-05-03 20:26 | 36.05967 | -77.57836 | 33610 ft | 453 kts | 356° |
| 2026-05-03 20:26 | 36.09046 | -77.57281 | 34068 ft | 453 kts | 356° |
| 2026-05-03 20:27 | 36.12164 | -77.56718 | 34558 ft | 452 kts | 356° |
| 2026-05-03 20:27 | 36.15270 | -77.56153 | 34972 ft | 451 kts | 356° |
| 2026-05-03 20:27 | 36.18370 | -77.55591 | 35351 ft | 451 kts | 356° |
| 2026-05-03 20:27 | 36.21475 | -77.55032 | 35705 ft | 451 kts | 356° |
| 2026-05-03 20:28 | 36.24583 | -77.54473 | 36048 ft | 452 kts | 356° |
| 2026-05-03 20:28 | 36.27738 | -77.53903 | 36385 ft | 452 kts | 356° |
| 2026-05-03 20:28 | 36.30817 | -77.53348 | 36712 ft | 453 kts | 355° |
| 2026-05-03 20:28 | 36.33942 | -77.52785 | 37057 ft | 454 kts | 356° |
| 2026-05-03 20:29 | 36.37061 | -77.52223 | 37103 ft | 452 kts | 356° |
| 2026-05-03 20:29 | 36.43283 | -77.51091 | 37104 ft | 451 kts | 356° |
| 2026-05-03 20:30 | 36.49492 | -77.49962 | 37102 ft | 451 kts | 356° |
| 2026-05-03 20:30 | 36.55701 | -77.48836 | 37101 ft | 450 kts | 356° |
| 2026-05-03 20:31 | 36.61902 | -77.47719 | 37094 ft | 448 kts | 356° |
| 2026-05-03 20:31 | 36.68072 | -77.46614 | 36852 ft | 448 kts | 355° |
| 2026-05-03 20:31 | 36.71157 | -77.46064 | 36598 ft | 447 kts | 356° |
| 2026-05-03 20:32 | 36.74221 | -77.45508 | 36259 ft | 444 kts | 356° |
| 2026-05-03 20:32 | 36.77270 | -77.44954 | 35809 ft | 442 kts | 355° |
| 2026-05-03 20:32 | 36.80305 | -77.44408 | 35359 ft | 440 kts | 355° |
| 2026-05-03 20:32 | 36.83326 | -77.43865 | 34918 ft | 438 kts | 355° |
| 2026-05-03 20:33 | 36.86340 | -77.43327 | 34434 ft | 436 kts | 355° |
| 2026-05-03 20:33 | 36.89349 | -77.42786 | 33943 ft | 434 kts | 355° |
| 2026-05-03 20:33 | 36.92327 | -77.42245 | 33441 ft | 431 kts | 355° |
| 2026-05-03 20:33 | 36.95279 | -77.41707 | 32969 ft | 427 kts | 355° |
| 2026-05-03 20:34 | 36.98201 | -77.41175 | 32513 ft | 422 kts | 356° |
| 2026-05-03 20:34 | 37.01095 | -77.40643 | 32056 ft | 418 kts | 356° |
| 2026-05-03 20:34 | 37.03961 | -77.40123 | 31611 ft | 414 kts | 355° |
| 2026-05-03 20:34 | 37.06802 | -77.39610 | 31169 ft | 411 kts | 356° |
| 2026-05-03 20:35 | 37.09623 | -77.39103 | 30737 ft | 407 kts | 356° |
| 2026-05-03 20:35 | 37.12414 | -77.38598 | 30308 ft | 403 kts | 356° |
| 2026-05-03 20:35 | 37.15176 | -77.38099 | 29848 ft | 399 kts | 356° |
| 2026-05-03 20:35 | 37.17904 | -77.37604 | 29446 ft | 393 kts | 356° |
| 2026-05-03 20:36 | 37.20603 | -77.37107 | 29048 ft | 388 kts | 356° |
| 2026-05-03 20:36 | 37.23256 | -77.36617 | 28661 ft | 383 kts | 356° |
| 2026-05-03 20:36 | 37.25881 | -77.36136 | 28292 ft | 379 kts | 356° |
| 2026-05-03 20:36 | 37.28452 | -77.35669 | 27952 ft | 376 kts | 356° |
| 2026-05-03 20:37 | 37.31036 | -77.35208 | 27529 ft | 374 kts | 356° |
| 2026-05-03 20:37 | 37.33600 | -77.34749 | 27134 ft | 370 kts | 357° |
| 2026-05-03 20:37 | 37.36143 | -77.34287 | 26740 ft | 367 kts | 357° |
| 2026-05-03 20:37 | 37.38662 | -77.33825 | 26340 ft | 364 kts | 357° |
| 2026-05-03 20:38 | 37.41160 | -77.33364 | 25940 ft | 361 kts | 358° |
| 2026-05-03 20:38 | 37.43638 | -77.32908 | 25524 ft | 359 kts | 358° |
| 2026-05-03 20:38 | 37.46098 | -77.32460 | 25116 ft | 356 kts | 358° |
| 2026-05-03 20:38 | 37.48573 | -77.32009 | 24692 ft | 353 kts | 357° |
| 2026-05-03 20:39 | 37.50923 | -77.31832 | 24330 ft | 344 kts | 352° |
| 2026-05-03 20:39 | 37.53311 | -77.31747 | 23878 ft | 342 kts | 352° |
| 2026-05-03 20:39 | 37.55681 | -77.31664 | 23420 ft | 340 kts | 353° |
| 2026-05-03 20:39 | 37.58034 | -77.31582 | 22993 ft | 335 kts | 353° |
| 2026-05-03 20:40 | 37.60347 | -77.31502 | 22582 ft | 330 kts | 353° |
| 2026-05-03 20:40 | 37.62633 | -77.31419 | 22185 ft | 326 kts | 353° |
| 2026-05-03 20:40 | 37.64888 | -77.31337 | 21805 ft | 322 kts | 353° |
| 2026-05-03 20:40 | 37.67117 | -77.31259 | 21410 ft | 319 kts | 353° |
| 2026-05-03 20:41 | 37.69327 | -77.31183 | 21018 ft | 316 kts | 353° |
| 2026-05-03 20:41 | 37.71517 | -77.31107 | 20631 ft | 314 kts | 353° |
| 2026-05-03 20:41 | 37.73689 | -77.31029 | 20238 ft | 311 kts | 353° |
| 2026-05-03 20:41 | 37.75852 | -77.30953 | 19849 ft | 310 kts | 353° |
| 2026-05-03 20:42 | 37.78000 | -77.30879 | 19460 ft | 308 kts | 353° |
| 2026-05-03 20:42 | 37.80145 | -77.30807 | 19073 ft | 307 kts | 353° |
| 2026-05-03 20:42 | 37.82280 | -77.30735 | 18687 ft | 306 kts | 353° |
| 2026-05-03 20:42 | 37.84410 | -77.30662 | 18290 ft | 306 kts | 353° |
| 2026-05-03 20:43 | 37.86534 | -77.30586 | 17877 ft | 304 kts | 353° |
| 2026-05-03 20:43 | 37.88643 | -77.30509 | 17492 ft | 302 kts | 353° |
| 2026-05-03 20:43 | 37.90739 | -77.30431 | 17062 ft | 302 kts | 353° |
| 2026-05-03 20:43 | 37.92831 | -77.30354 | 16682 ft | 300 kts | 354° |
| 2026-05-03 20:44 | 37.94911 | -77.30277 | 16304 ft | 298 kts | 354° |
| 2026-05-03 20:44 | 37.96976 | -77.30200 | 15940 ft | 297 kts | 354° |
| 2026-05-03 20:44 | 37.99039 | -77.30126 | 15552 ft | 296 kts | 354° |
| 2026-05-03 20:44 | 38.01093 | -77.30054 | 15169 ft | 294 kts | 354° |
| 2026-05-03 20:45 | 38.03164 | -77.29981 | 14795 ft | 293 kts | 354° |
| 2026-05-03 20:45 | 38.05176 | -77.29912 | 14413 ft | 293 kts | 354° |
| 2026-05-03 20:45 | 38.07215 | -77.29772 | 14047 ft | 296 kts | 1° |
| 2026-05-03 20:45 | 38.09241 | -77.29193 | 13645 ft | 299 kts | 7° |
| 2026-05-03 20:46 | 38.11259 | -77.28555 | 13247 ft | 297 kts | 7° |
| 2026-05-03 20:46 | 38.13262 | -77.27922 | 12864 ft | 296 kts | 7° |
| 2026-05-03 20:46 | 38.15252 | -77.27291 | 12483 ft | 294 kts | 7° |
| 2026-05-03 20:46 | 38.17228 | -77.26665 | 12109 ft | 292 kts | 7° |
| 2026-05-03 20:47 | 38.19192 | -77.26047 | 11742 ft | 290 kts | 8° |
| 2026-05-03 20:47 | 38.21145 | -77.25436 | 11379 ft | 289 kts | 8° |
| 2026-05-03 20:47 | 38.23094 | -77.24822 | 11008 ft | 287 kts | 8° |
| 2026-05-03 20:47 | 38.25023 | -77.24212 | 10647 ft | 285 kts | 8° |
| 2026-05-03 20:48 | 38.26943 | -77.23601 | 10292 ft | 283 kts | 8° |
| 2026-05-03 20:48 | 38.28207 | -77.23198 | 10050 ft | 282 kts | 9° |
| 2026-05-03 20:48 | 38.30109 | -77.22592 | 9672 ft | 280 kts | 9° |
| 2026-05-03 20:48 | 38.31994 | -77.21988 | 9306 ft | 278 kts | 9° |
| 2026-05-03 20:49 | 38.33785 | -77.21066 | 9064 ft | 278 kts | 25° |
| 2026-05-03 20:49 | 38.35327 | -77.19601 | 8926 ft | 274 kts | 37° |
| 2026-05-03 20:49 | 38.36718 | -77.18022 | 8783 ft | 260 kts | 36° |
| 2026-05-03 20:49 | 38.38034 | -77.16530 | 8659 ft | 246 kts | 36° |
| 2026-05-03 20:50 | 38.39294 | -77.15109 | 8502 ft | 236 kts | 36° |
| 2026-05-03 20:50 | 38.40499 | -77.13755 | 8368 ft | 225 kts | 36° |
| 2026-05-03 20:50 | 38.41639 | -77.12472 | 8251 ft | 209 kts | 35° |
| 2026-05-03 20:50 | 38.42702 | -77.11272 | 7953 ft | 203 kts | 35° |
| 2026-05-03 20:51 | 38.43760 | -77.10084 | 7581 ft | 202 kts | 36° |
| 2026-05-03 20:51 | 38.44817 | -77.08899 | 7191 ft | 202 kts | 36° |
| 2026-05-03 20:51 | 38.45861 | -77.07725 | 6953 ft | 195 kts | 36° |
| 2026-05-03 20:51 | 38.46841 | -77.06615 | 6818 ft | 181 kts | 36° |
| 2026-05-03 20:52 | 38.47744 | -77.05588 | 6398 ft | 172 kts | 37° |
| 2026-05-03 20:52 | 38.48648 | -77.04566 | 5796 ft | 174 kts | 36° |
| 2026-05-03 20:52 | 38.49548 | -77.03549 | 5210 ft | 171 kts | 36° |
| 2026-05-03 20:52 | 38.50459 | -77.02595 | 4779 ft | 168 kts | 30° |
| 2026-05-03 20:53 | 38.51476 | -77.01858 | 4601 ft | 167 kts | 20° |
| 2026-05-03 20:53 | 38.52560 | -77.01369 | 4392 ft | 164 kts | 9° |
| 2026-05-03 20:53 | 38.53678 | -77.01129 | 4186 ft | 163 kts | 0° |
| 2026-05-03 20:53 | 38.54802 | -77.00957 | 4013 ft | 161 kts | 359° |
| 2026-05-03 20:54 | 38.55921 | -77.00934 | 4024 ft | 161 kts | 353° |
| 2026-05-03 20:54 | 38.58151 | -77.01079 | 4033 ft | 160 kts | 351° |
| 2026-05-03 20:54 | 38.59261 | -77.01181 | 4035 ft | 160 kts | 351° |
| 2026-05-03 20:55 | 38.60376 | -77.01289 | 4035 ft | 163 kts | 351° |
| 2026-05-03 20:55 | 38.61535 | -77.01404 | 4037 ft | 169 kts | 351° |
| 2026-05-03 20:55 | 38.62712 | -77.01522 | 4038 ft | 170 kts | 351° |
| 2026-05-03 20:55 | 38.63873 | -77.01637 | 3983 ft | 170 kts | 351° |
| 2026-05-03 20:56 | 38.65049 | -77.01755 | 3819 ft | 169 kts | 351° |
| 2026-05-03 20:56 | 38.66231 | -77.01873 | 3607 ft | 168 kts | 350° |
| 2026-05-03 20:56 | 38.67396 | -77.01990 | 3333 ft | 167 kts | 349° |
| 2026-05-03 20:56 | 38.68554 | -77.02106 | 3102 ft | 167 kts | 350° |
| 2026-05-03 20:57 | 38.69697 | -77.02220 | 2879 ft | 167 kts | 351° |
| 2026-05-03 20:57 | 38.70851 | -77.02336 | 2654 ft | 167 kts | 351° |
| 2026-05-03 20:57 | 38.72005 | -77.02452 | 2429 ft | 166 kts | 350° |
| 2026-05-03 20:57 | 38.73144 | -77.02566 | 2218 ft | 164 kts | 351° |
| 2026-05-03 20:58 | 38.74289 | -77.02682 | 1996 ft | 165 kts | 350° |
| 2026-05-03 20:58 | 38.75430 | -77.02796 | 1766 ft | 163 kts | 350° |
| 2026-05-03 20:58 | 38.76563 | -77.02921 | 1540 ft | 164 kts | 349° |
| 2026-05-03 20:58 | 38.77696 | -77.03040 | 1447 ft | 163 kts | 351° |
| 2026-05-03 20:59 | 38.78845 | -77.03108 | 1183 ft | 166 kts | 352° |
| 2026-05-03 20:59 | 38.79986 | -77.03200 | 951 ft | 164 kts | 351° |
| 2026-05-03 20:59 | 38.81118 | -77.03346 | 637 ft | 164 kts | 349° |
| 2026-05-03 20:59 | 38.82239 | -77.03477 | 417 ft | 153 kts | 351° |
| 2026-05-03 21:00 | 38.83272 | -77.03578 | 218 ft | 144 kts | 349° |
| 2026-05-03 21:00 | 38.83932 | -77.03639 | 96 ft | 141 kts | 351° |
| 2026-05-03 21:00 | 38.85173 | -77.03793 | 26 ft | 110 kts | 14° |
| 2026-05-03 21:00 | 38.85722 | -77.03795 | 26 ft | 57 kts | 344° |
| 2026-05-03 21:01 | 38.85892 | -77.04089 | 25 ft | 22 kts | 271° |
| 2026-05-03 21:01 | 38.85887 | -77.04224 | 25 ft | 14 kts | 199° |
| 2026-05-03 21:01 | 38.85788 | -77.04153 | 25 ft | 18 kts | 144° |
| 2026-05-03 21:02 | 38.85673 | -77.04057 | 25 ft | 21 kts | 154° |
| 2026-05-03 21:02 | 38.85547 | -77.04026 | 24 ft | 7 kts | 184° |
| 2026-05-03 21:02 | 38.85505 | -77.04081 | 25 ft | 11 kts | 221° |
| 2026-05-03 21:02 | 38.85482 | -77.04101 | 24 ft | 0 kts | 213° |